Antonito, CO (81120)

5:27 AM MST on March 04, 2015 (GMT -0700)
Fox Creek | Change Station
CLOSE
Current Station
Personal Weather Station
Location: Antonito, CO
Elevation: 8451 ft
Nearby Weather Stations

Elev 8451 ft 37.07 °N, 106.22 °W | Updated 11 minutes ago

Partly Cloudy
Partly Cloudy
12.9 °F
Feels Like 13 °F
N
0.0
Wind Variable Wind from WNW

Today
High -- | Low -- °F
--% Chance of Precip.
Yesterday
High -- | Low -- °F
Precip. -- in
6:32 AM 6:01 PM
Waxing Gibbous, 99% visible
Pressure 29.87 in
Visibility 10.0 miles
Clouds Clear
Windchill 13 °F
Dew Point 10 °F
Humidity 90%
Rainfall 0.00 in
Snow Depth Not available.
UV 0 out of 12
Pollen .80 out of 12
Air Quality Not available.
Flu Activity Not available.
METAR KALS 041152Z AUTO 05004KT 10SM CLR M07/M10 A2983 RMK AO2 SLP114 T10721100 11044 21072 53005

More Conditions Fewer Conditions

Pressure 29.87 in
Visibility 10.0 miles
Clouds Clear
Windchill 13 °F
Dew Point 10 °F
Humidity 90%
Rainfall 0.00 in
Snow Depth Not available.
UV 0 out of 12
Pollen .80 out of 12
Air Quality Not available.
Flu Activity Not available.
METAR KALS 041152Z AUTO 05004KT 10SM CLR M07/M10 A2983 RMK AO2 SLP114 T10721100 11044 21072 53005

More Conditions Fewer Conditions

10-Day Weather Forecast

Almanac

Astronomy

Mar. 04, 2015 Rise Set
Actual Time
Civil Twilight
Nautical Twilight
Astronomical Twilight
Moon
Length of Visible Light
Length of Day
Tomorrow will be .
, % of the Moon is Illuminated

Today's Extremes

State Highs State Lows

Community

WunderPhotos

Upload Photos

1,802,438 photos uploaded!

WunderBlogs® & News

Nearby

Air Quality

  Air Quality AQ Index Pollutant
Not available.

Snow Depth

Station Depth Elevation

Earthquake Activity

City Distance Mag. Time & Date
Minimum magnitude displayed is 2.5.

Coastal Water Temperatures

Place Temperature

Nearby Weather Stations